createdAt,value
2022-09-14T00:01:45.139Z,1.80
2022-09-14T00:04:15.860Z,1.35
2022-09-14T00:06:44.766Z,1.42
2022-09-14T00:09:16.627Z,1.98
2022-09-14T00:11:49.648Z,1.67
2022-09-14T00:14:19.627Z,1.77
2022-09-14T00:16:48.379Z,1.33
2022-09-14T00:19:19.939Z,1.25
2022-09-14T00:21:52.601Z,1.23
2022-09-14T00:24:21.078Z,1.88
2022-09-14T00:26:50.759Z,1.75
2022-09-14T00:29:19.306Z,1.23
2022-09-14T00:31:47.385Z,1.75
2022-09-14T00:34:17.370Z,1.63
2022-09-14T00:36:47.320Z,1.52
2022-09-14T00:39:17.165Z,2.08
2022-09-14T00:41:47.110Z,1.90
2022-09-14T00:45:08.124Z,1.95
2022-09-14T00:50:07.372Z,0.93
2022-09-14T00:52:41.825Z,1.40
2022-09-14T00:55:13.101Z,1.95
2022-09-14T00:57:44.813Z,1.83
2022-09-14T01:00:17.324Z,1.52
2022-09-14T01:02:45.907Z,1.80
2022-09-14T01:05:15.423Z,2.22
2022-09-14T01:07:57.078Z,1.55
2022-09-14T01:10:34.728Z,1.30
2022-09-14T01:13:17.355Z,1.30
2022-09-14T01:16:01.282Z,1.35
2022-09-14T01:18:32.673Z,1.73
2022-09-14T01:21:06.173Z,1.33
2022-09-14T01:23:41.683Z,1.67
2022-09-14T01:26:48.097Z,1.38
2022-09-14T01:29:21.856Z,1.10
2022-09-14T01:31:54.551Z,1.08
2022-09-14T01:34:29.473Z,1.40
2022-09-14T01:37:02.304Z,2.08
2022-09-14T01:39:32.647Z,1.60
2022-09-14T01:42:02.134Z,1.65
2022-09-14T01:44:35.977Z,1.55
2022-09-14T01:47:08.723Z,2.88
2022-09-14T01:49:42.638Z,1.50
2022-09-14T01:52:15.915Z,1.60
2022-09-14T01:54:49.403Z,1.30
2022-09-14T01:57:22.421Z,2.05
2022-09-14T01:59:54.570Z,1.58
2022-09-14T02:02:28.492Z,1.30
2022-09-14T02:05:03.208Z,1.67
2022-09-14T02:07:31.662Z,1.55
2022-09-14T02:09:59.680Z,1.38
2022-09-14T02:12:28.361Z,2.05
2022-09-14T02:14:57.975Z,2.45
2022-09-14T02:17:25.946Z,1.50
2022-09-14T02:19:57.372Z,1.25
2022-09-14T02:22:26.848Z,1.65
2022-09-14T02:24:55.272Z,1.58
2022-09-14T02:27:23.577Z,2.03
2022-09-14T02:29:51.782Z,2.05
2022-09-14T02:32:30.778Z,1.38
2022-09-14T02:35:04.050Z,1.30
2022-09-14T02:37:41.614Z,1.58
2022-09-14T02:40:19.103Z,1.55
2022-09-14T02:42:59.374Z,1.60
2022-09-14T02:45:35.944Z,1.38
2022-09-14T02:48:14.412Z,1.77
2022-09-14T02:50:52.798Z,1.40
2022-09-14T02:53:28.266Z,1.20
2022-09-14T02:55:59.967Z,1.52
2022-09-14T02:58:36.729Z,1.42
2022-09-14T03:01:07.068Z,1.48
2022-09-14T03:03:36.830Z,1.40
2022-09-14T03:06:05.656Z,1.77
2022-09-14T03:08:34.663Z,1.80
2022-09-14T03:11:03.040Z,1.50
2022-09-14T03:13:31.364Z,1.30
2022-09-14T03:15:59.444Z,1.83
2022-09-14T03:18:27.486Z,1.45
2022-09-14T03:21:04.806Z,1.58
2022-09-14T03:23:37.533Z,1.50
2022-09-14T03:26:08.588Z,1.40
2022-09-14T03:28:36.695Z,1.73
2022-09-14T03:31:07.695Z,1.20
2022-09-14T03:33:35.946Z,1.90
2022-09-14T03:36:12.560Z,1.75
2022-09-14T03:38:44.868Z,1.92
2022-09-14T03:41:14.287Z,1.77
2022-09-14T03:43:43.691Z,1.40
2022-09-14T03:46:14.551Z,1.30
2022-09-14T03:48:43.027Z,1.50
2022-09-14T03:51:14.160Z,1.45
2022-09-14T03:53:43.308Z,1.85
2022-09-14T03:56:15.075Z,1.88
2022-09-14T03:58:43.711Z,1.38
2022-09-14T04:01:14.506Z,1.77
2022-09-14T04:03:43.103Z,2.00
2022-09-14T04:06:12.946Z,1.85
2022-09-14T04:08:42.267Z,1.70
2022-09-14T04:11:12.778Z,1.38
2022-09-14T04:13:41.260Z,1.95
2022-09-14T04:16:09.854Z,1.58
2022-09-14T04:18:37.886Z,2.08
2022-09-14T04:21:08.782Z,1.45
2022-09-14T04:23:57.068Z,1.73
2022-09-14T04:26:29.684Z,1.10
2022-09-14T04:28:58.634Z,1.48
2022-09-14T04:31:27.403Z,1.70
2022-09-14T04:33:57.021Z,1.48
2022-09-14T04:36:29.424Z,1.80
2022-09-14T04:39:00.880Z,1.52
2022-09-14T04:41:30.966Z,1.90
2022-09-14T04:44:00.080Z,1.83
2022-09-14T04:46:30.197Z,1.60
2022-09-14T04:48:58.411Z,1.77
2022-09-14T04:51:29.792Z,1.88
2022-09-14T04:54:00.225Z,1.95
2022-09-14T04:56:29.460Z,1.92
2022-09-14T04:58:59.597Z,1.50
2022-09-14T05:01:29.330Z,1.63
2022-09-14T05:03:58.649Z,1.92
2022-09-14T05:06:28.995Z,2.05
2022-09-14T05:09:00.032Z,1.80
2022-09-14T05:11:34.770Z,2.70
2022-09-14T05:14:03.909Z,1.63
2022-09-14T05:16:34.580Z,2.13
2022-09-14T05:19:05.316Z,1.50
2022-09-14T05:21:36.962Z,1.75
2022-09-14T05:24:08.880Z,2.00
2022-09-14T05:26:37.289Z,1.80
2022-09-14T05:29:05.576Z,2.72
2022-09-14T05:31:34.483Z,1.88
2022-09-14T05:34:02.625Z,1.90
2022-09-14T05:36:30.834Z,1.88
2022-09-14T05:38:59.024Z,2.03
2022-09-14T05:41:28.447Z,1.98
2022-09-14T05:43:56.668Z,1.70
2022-09-14T05:46:24.818Z,2.40
2022-09-14T05:48:53.388Z,3.30
2022-09-14T05:51:23.414Z,3.15
2022-09-14T05:53:53.041Z,2.72
2022-09-14T05:56:22.831Z,3.97
2022-09-14T05:58:53.218Z,2.97
2022-09-14T06:01:23.032Z,2.97
2022-09-14T06:03:54.196Z,3.00
2022-09-14T06:06:22.933Z,3.13
2022-09-14T06:08:53.739Z,3.10
2022-09-14T06:11:24.452Z,3.45
2022-09-14T06:13:55.219Z,2.90
2022-09-14T06:16:25.288Z,3.33
2022-09-14T06:18:55.818Z,3.03
2022-09-14T06:21:24.808Z,3.95
2022-09-14T06:23:53.024Z,3.70
2022-09-14T06:26:21.413Z,2.58
2022-09-14T06:28:50.766Z,3.03
2022-09-14T06:31:22.560Z,2.85
2022-09-14T06:33:51.672Z,2.72
2022-09-14T06:36:21.844Z,2.92
2022-09-14T06:38:54.285Z,2.92
2022-09-14T06:41:26.402Z,2.50
2022-09-14T06:44:01.724Z,3.40
2022-09-14T06:46:33.209Z,2.60
2022-09-14T06:49:03.016Z,3.08
2022-09-14T06:51:33.479Z,3.28
2022-09-14T06:54:02.303Z,3.75
2022-09-14T06:56:33.734Z,3.70
2022-09-14T06:59:02.013Z,4.78
2022-09-14T07:01:31.761Z,3.10
2022-09-14T07:04:01.638Z,3.10
2022-09-14T07:06:31.747Z,3.08
2022-09-14T07:09:00.079Z,3.55
2022-09-14T07:11:29.586Z,2.90
2022-09-14T07:13:58.971Z,3.03
2022-09-14T07:16:27.752Z,3.17
2022-09-14T07:18:58.673Z,3.65
2022-09-14T07:21:27.816Z,2.92
2022-09-14T07:23:56.701Z,3.67
2022-09-14T07:26:26.562Z,3.63
2022-09-14T07:28:57.177Z,3.92
2022-09-14T07:31:27.830Z,3.28
2022-09-14T07:33:59.936Z,3.00
2022-09-14T07:36:32.780Z,3.60
2022-09-14T07:39:05.289Z,2.83
2022-09-14T07:41:34.913Z,3.63
2022-09-14T07:44:04.666Z,2.80
2022-09-14T07:46:38.255Z,3.35
2022-09-14T07:49:10.592Z,3.97
2022-09-14T07:51:39.556Z,3.42
2022-09-14T07:54:09.762Z,4.30
2022-09-14T07:56:37.987Z,3.33
2022-09-14T07:59:33.487Z,3.15
2022-09-14T08:01:55.071Z,3.75
2022-09-14T08:04:24.969Z,3.00
2022-09-14T08:06:53.203Z,2.97
2022-09-14T08:09:21.265Z,3.55
2022-09-14T08:11:49.629Z,4.32
2022-09-14T08:14:18.066Z,3.15
2022-09-14T08:16:46.221Z,3.80
2022-09-14T08:19:16.858Z,4.90
2022-09-14T08:21:48.418Z,5.68
2022-09-14T08:24:18.236Z,4.85
2022-09-14T08:26:47.106Z,5.05
2022-09-14T08:29:17.799Z,3.92
2022-09-14T08:31:47.720Z,4.50
2022-09-14T08:34:17.194Z,3.35
2022-09-14T08:36:48.136Z,3.70
2022-09-14T08:39:18.426Z,5.70
2022-09-14T08:41:52.522Z,5.35
2022-09-14T08:44:25.725Z,3.05
2022-09-14T08:47:00.680Z,4.00
2022-09-14T08:49:45.880Z,3.20
2022-09-14T08:52:23.705Z,3.83
2022-09-14T08:54:55.239Z,3.87
2022-09-14T08:57:33.483Z,3.97
2022-09-14T09:00:08.739Z,4.80
2022-09-14T09:02:53.332Z,5.20
2022-09-14T09:05:31.442Z,3.67
2022-09-14T09:08:07.915Z,3.85
2022-09-14T09:10:41.581Z,3.30
2022-09-14T09:13:15.398Z,4.05
2022-09-14T09:15:47.398Z,4.25
2022-09-14T09:18:21.573Z,4.00
2022-09-14T09:20:53.035Z,5.78
2022-09-14T09:23:24.472Z,3.30
2022-09-14T09:25:57.687Z,2.65
2022-09-14T09:28:28.462Z,4.85
2022-09-14T09:30:59.689Z,4.97
2022-09-14T09:33:29.037Z,6.25
2022-09-14T09:35:57.237Z,7.63
2022-09-14T09:38:29.514Z,8.27
2022-09-14T09:41:06.487Z,9.40
2022-09-14T09:43:48.927Z,9.80
2022-09-14T09:46:21.417Z,10.65
2022-09-14T09:48:51.084Z,10.60
2022-09-14T09:51:28.509Z,11.32
2022-09-14T09:54:02.601Z,10.82
2022-09-14T09:56:34.288Z,11.43
2022-09-14T09:59:02.865Z,11.05
2022-09-14T10:01:33.161Z,9.77
2022-09-14T10:04:05.196Z,7.93
2022-09-14T10:06:41.488Z,8.95
2022-09-14T10:09:19.667Z,9.43
2022-09-14T10:11:58.562Z,9.02
2022-09-14T10:14:31.351Z,9.63
2022-09-14T10:17:08.594Z,10.88
2022-09-14T10:19:37.840Z,7.93
2022-09-14T10:22:21.829Z,9.48
2022-09-14T10:24:56.557Z,8.15
2022-09-14T10:27:39.583Z,8.07
2022-09-14T10:30:14.874Z,7.80
2022-09-14T10:32:50.008Z,8.13
2022-09-14T10:35:18.610Z,7.10
2022-09-14T10:38:06.162Z,5.38
2022-09-14T10:40:38.674Z,4.50
2022-09-14T10:43:16.509Z,4.90
2022-09-14T10:45:50.877Z,4.75
2022-09-14T10:48:29.630Z,4.60
2022-09-14T10:51:07.207Z,4.50
2022-09-14T10:53:50.089Z,3.15
2022-09-14T10:56:23.060Z,5.05
2022-09-14T10:59:10.532Z,3.95
2022-09-14T11:02:04.510Z,3.63
2022-09-14T11:04:53.656Z,3.20
2022-09-14T11:07:32.052Z,3.80
2022-09-14T11:10:15.449Z,3.78
2022-09-14T11:12:53.330Z,4.03
2022-09-14T11:15:28.267Z,4.68
2022-09-14T11:18:17.233Z,4.20
2022-09-14T11:20:56.654Z,4.03
2022-09-14T11:23:44.993Z,3.08
2022-09-14T11:26:18.110Z,3.03
2022-09-14T11:28:52.481Z,2.60
2022-09-14T11:31:26.130Z,2.78
2022-09-14T11:34:00.049Z,3.10
2022-09-14T11:36:31.528Z,3.50
2022-09-14T11:39:06.872Z,3.80
2022-09-14T11:41:42.791Z,3.53
2022-09-14T11:44:18.676Z,3.53
2022-09-14T11:46:51.398Z,2.75
2022-09-14T11:49:24.743Z,3.50
2022-09-14T11:51:56.741Z,3.78
2022-09-14T11:54:25.153Z,4.40
2022-09-14T11:56:57.685Z,4.03
2022-09-14T11:59:50.661Z,3.63
2022-09-14T12:03:01.999Z,4.90
2022-09-14T12:05:36.053Z,4.43
2022-09-14T12:08:26.986Z,3.58
2022-09-14T12:11:06.533Z,4.57
2022-09-14T12:13:35.419Z,4.15
2022-09-14T12:16:07.012Z,3.67
2022-09-14T12:18:37.637Z,3.90
2022-09-14T12:21:09.186Z,5.20
2022-09-14T12:23:44.806Z,4.88
2022-09-14T12:26:29.680Z,4.20
2022-09-14T12:29:03.729Z,3.92
2022-09-14T12:31:59.164Z,5.00
2022-09-14T12:34:30.351Z,4.70
2022-09-14T12:37:21.202Z,4.30
2022-09-14T12:40:37.966Z,5.13
2022-09-14T12:43:50.732Z,4.95
2022-09-14T12:46:40.751Z,4.85
2022-09-14T12:49:29.665Z,3.55
2022-09-14T12:52:02.301Z,3.70
2022-09-14T12:54:44.004Z,4.88
2022-09-14T12:57:29.952Z,4.00
2022-09-14T13:00:07.258Z,3.67
2022-09-14T13:02:59.007Z,3.30
2022-09-14T13:05:30.092Z,2.88
2022-09-14T13:07:59.074Z,3.17
2022-09-14T13:10:31.438Z,3.58
2022-09-14T13:13:02.329Z,3.50
2022-09-14T13:15:34.751Z,3.38
2022-09-14T13:18:07.260Z,5.10
2022-09-14T13:20:37.208Z,3.25
2022-09-14T13:23:20.980Z,3.63
2022-09-14T13:25:51.192Z,3.90
2022-09-14T13:28:21.104Z,2.80
2022-09-14T13:30:55.797Z,2.58
2022-09-14T13:33:25.853Z,2.25
2022-09-14T13:35:58.768Z,2.58
2022-09-14T13:38:30.155Z,2.72
2022-09-14T13:41:12.278Z,2.65
2022-09-14T13:43:43.085Z,3.20
2022-09-14T13:46:17.123Z,2.70
2022-09-14T13:48:50.293Z,2.78
2022-09-14T13:51:24.556Z,3.45
2022-09-14T13:53:54.598Z,3.10
2022-09-14T13:56:26.475Z,2.88
2022-09-14T13:59:21.496Z,3.08
2022-09-14T14:01:57.178Z,2.22
2022-09-14T14:04:35.497Z,2.55
2022-09-14T14:07:08.392Z,3.90
2022-09-14T14:09:43.462Z,3.35
2022-09-14T14:12:24.129Z,2.63
2022-09-14T14:15:00.780Z,4.20
2022-09-14T14:17:36.652Z,3.35
2022-09-14T14:20:32.846Z,3.85
2022-09-14T14:23:16.503Z,4.07
2022-09-14T14:25:51.896Z,3.78
2022-09-14T14:28:29.281Z,4.15
2022-09-14T14:30:59.746Z,4.20
2022-09-14T14:33:28.125Z,5.50
2022-09-14T14:35:58.202Z,4.80
2022-09-14T14:38:26.748Z,4.00
2022-09-14T14:40:58.491Z,4.22
2022-09-14T14:43:28.362Z,4.75
2022-09-14T14:45:59.648Z,4.70
2022-09-14T14:48:33.171Z,5.55
2022-09-14T14:51:03.262Z,4.90
2022-09-14T14:53:31.419Z,4.30
2022-09-14T14:55:59.739Z,3.78
2022-09-14T14:58:27.764Z,4.80
2022-09-14T15:00:56.372Z,3.80
2022-09-14T15:03:24.749Z,3.90
2022-09-14T15:05:53.046Z,3.15
2022-09-14T15:08:22.759Z,3.80
2022-09-14T15:10:57.040Z,3.63
2022-09-14T15:13:25.404Z,3.65
2022-09-14T15:15:53.564Z,3.38
2022-09-14T15:18:21.932Z,3.72
2022-09-14T15:20:50.203Z,3.80
2022-09-14T15:23:18.300Z,4.57
2022-09-14T15:25:51.746Z,3.80
2022-09-14T15:28:20.140Z,3.47
2022-09-14T15:30:48.381Z,3.88
2022-09-14T15:33:16.390Z,2.60
2022-09-14T15:35:44.661Z,3.47
2022-09-14T15:38:12.873Z,2.92
2022-09-14T15:40:41.234Z,2.90
2022-09-14T15:43:10.696Z,2.85
2022-09-14T15:45:40.400Z,3.33
2022-09-14T15:48:08.644Z,5.55
2022-09-14T15:50:40.133Z,1.92
2022-09-14T15:53:08.469Z,2.05
2022-09-14T15:55:39.260Z,1.85
2022-09-14T15:58:08.177Z,1.50
2022-09-14T16:00:38.873Z,1.70
2022-09-14T16:03:07.347Z,2.25
2022-09-14T16:05:38.610Z,1.80
2022-09-14T16:08:07.336Z,1.77
2022-09-14T16:10:35.728Z,1.88
2022-09-14T16:13:03.934Z,1.73
2022-09-14T16:15:32.249Z,1.70
2022-09-14T16:18:01.866Z,1.90
2022-09-14T16:20:30.374Z,2.13
2022-09-14T16:22:58.618Z,1.95
2022-09-14T16:25:26.693Z,2.65
2022-09-14T16:27:54.728Z,1.60
2022-09-14T16:30:22.831Z,1.80
2022-09-14T16:32:52.369Z,2.00
2022-09-14T16:35:22.042Z,1.98
2022-09-14T16:37:50.006Z,2.10
2022-09-14T16:40:18.632Z,2.60
2022-09-14T16:42:46.894Z,2.50
2022-09-14T16:45:16.132Z,2.38
2022-09-14T16:47:44.631Z,2.33
2022-09-14T16:50:13.354Z,1.73
2022-09-14T16:52:44.931Z,2.17
2022-09-14T16:55:13.246Z,2.75
2022-09-14T16:57:41.281Z,2.40
2022-09-14T17:00:10.974Z,3.10
2022-09-14T17:02:39.154Z,3.05
2022-09-14T17:05:08.338Z,3.33
2022-09-14T17:07:36.604Z,3.08
2022-09-14T17:10:07.026Z,4.25
2022-09-14T17:12:34.989Z,4.13
2022-09-14T17:15:03.064Z,3.85
2022-09-14T17:17:31.141Z,4.55
2022-09-14T17:19:59.464Z,4.03
2022-09-14T17:22:27.497Z,4.43
2022-09-14T17:24:55.646Z,4.53
2022-09-14T17:27:25.757Z,5.75
2022-09-14T17:29:53.957Z,4.18
2022-09-14T17:32:22.207Z,5.30
2022-09-14T17:34:50.347Z,4.82
2022-09-14T17:37:18.585Z,6.15
2022-09-14T17:39:46.743Z,5.00
2022-09-14T17:42:14.833Z,5.50
2022-09-14T17:44:44.717Z,5.10
2022-09-14T17:47:13.259Z,5.40
2022-09-14T17:49:41.431Z,5.55
2022-09-14T17:52:09.580Z,5.45
2022-09-14T17:54:37.774Z,5.20
2022-09-14T17:57:06.391Z,5.78
2022-09-14T17:59:34.555Z,5.70
2022-09-14T18:02:04.708Z,6.18
2022-09-14T18:04:33.279Z,6.25
2022-09-14T18:07:03.850Z,6.47
2022-09-14T18:09:33.836Z,6.75
2022-09-14T18:12:10.439Z,7.15
2022-09-14T18:14:39.238Z,7.07
2022-09-14T18:17:08.672Z,7.40
2022-09-14T18:19:37.046Z,7.22
2022-09-14T18:22:05.237Z,7.15
2022-09-14T18:24:33.842Z,7.93
2022-09-14T18:27:02.181Z,7.80
2022-09-14T18:29:31.809Z,8.10
2022-09-14T18:32:00.653Z,7.72
2022-09-14T18:34:33.183Z,8.57
2022-09-14T18:37:01.784Z,8.45
2022-09-14T18:39:30.559Z,9.77
2022-09-14T18:41:58.969Z,9.25
2022-09-14T18:44:27.734Z,10.18
2022-09-14T18:46:56.362Z,9.90
2022-09-14T18:49:24.627Z,10.52
2022-09-14T18:51:54.272Z,10.88
2022-09-14T18:54:27.731Z,11.05
2022-09-14T18:57:08.485Z,10.73
2022-09-14T18:59:40.021Z,11.90
2022-09-14T19:02:11.100Z,11.07
2022-09-14T19:04:39.813Z,11.15
2022-09-14T19:07:13.517Z,10.40
2022-09-14T19:09:42.661Z,10.95
2022-09-14T19:12:10.661Z,11.85
2022-09-14T19:14:38.759Z,13.80
2022-09-14T19:17:06.990Z,11.43
2022-09-14T19:19:35.420Z,12.35
2022-09-14T19:22:03.809Z,11.57
2022-09-14T19:24:36.606Z,11.55
2022-09-14T19:27:05.709Z,12.20
2022-09-14T19:29:34.035Z,13.40
2022-09-14T19:32:02.807Z,12.57
2022-09-14T19:34:31.498Z,13.25
2022-09-14T19:37:00.345Z,13.20
2022-09-14T19:39:29.134Z,13.57
2022-09-14T19:41:58.626Z,14.80
2022-09-14T19:44:31.689Z,14.77
2022-09-14T19:47:02.459Z,14.63
2022-09-14T19:49:31.910Z,15.32
2022-09-14T19:52:00.535Z,14.50
2022-09-14T19:54:29.494Z,15.63
2022-09-14T19:56:59.188Z,16.40
2022-09-14T19:59:27.940Z,15.50
2022-09-14T20:01:59.755Z,15.85
2022-09-14T20:04:28.724Z,15.10
2022-09-14T20:06:59.962Z,15.85
2022-09-14T20:09:28.931Z,15.23
2022-09-14T20:11:57.617Z,16.27
2022-09-14T20:14:27.818Z,17.20
2022-09-14T20:17:00.741Z,16.17
2022-09-14T20:19:32.653Z,16.08
2022-09-14T20:22:01.466Z,17.05
2022-09-14T20:24:32.318Z,17.65
2022-09-14T20:27:03.506Z,18.38
2022-09-14T20:29:35.637Z,17.88
2022-09-14T20:32:05.626Z,17.77
2022-09-14T20:34:37.189Z,19.15
2022-09-14T20:37:22.577Z,17.92
2022-09-14T20:39:51.694Z,18.40
2022-09-14T20:42:19.731Z,19.95
2022-09-14T20:47:19.743Z,18.13
2022-09-14T20:49:52.375Z,18.50
2022-09-14T20:52:20.517Z,16.60
2022-09-14T20:57:16.818Z,19.58
2022-09-14T20:59:51.331Z,17.80
2022-09-14T21:02:22.623Z,18.75
2022-09-14T21:04:51.689Z,19.98
2022-09-14T21:07:19.796Z,21.33
2022-09-14T21:09:47.863Z,21.95
2022-09-14T21:14:45.334Z,19.38
2022-09-14T21:17:14.974Z,21.55
2022-09-14T21:19:44.169Z,21.45
2022-09-14T21:22:12.504Z,21.02
2022-09-14T21:24:40.823Z,19.73
2022-09-14T21:27:08.960Z,21.02
2022-09-14T21:29:48.637Z,20.95
2022-09-14T21:32:27.503Z,21.17
2022-09-14T21:34:58.720Z,22.45
2022-09-14T21:37:27.787Z,22.42
2022-09-14T21:39:56.666Z,21.23
2022-09-14T21:42:24.845Z,48.67
2022-09-14T21:44:53.852Z,44.92
2022-09-14T21:47:23.941Z,30.05
2022-09-14T21:49:51.994Z,19.60
2022-09-14T21:52:20.139Z,18.77
2022-09-14T21:54:50.825Z,38.20
2022-09-14T21:57:19.279Z,20.88
2022-09-14T21:59:47.894Z,117.95
2022-09-14T22:02:21.841Z,21.65
2022-09-14T22:04:52.137Z,31.10
2022-09-14T22:07:20.474Z,47.45
2022-09-14T22:09:48.723Z,25.63
2022-09-14T22:12:17.807Z,25.73
2022-09-14T22:14:46.227Z,25.30
2022-09-14T22:17:14.832Z,30.33
2022-09-14T22:19:43.090Z,23.23
2022-09-14T22:22:12.779Z,23.10
2022-09-14T22:24:42.010Z,28.67
2022-09-14T22:27:11.313Z,21.50
2022-09-14T22:29:41.672Z,21.98
2022-09-14T22:32:12.192Z,25.95
2022-09-14T22:34:41.971Z,20.80
2022-09-14T22:37:12.238Z,22.65
2022-09-14T22:39:40.809Z,20.83
2022-09-14T22:42:09.356Z,22.52
2022-09-14T22:44:37.664Z,20.75
2022-09-14T22:47:07.782Z,22.17
2022-09-14T22:49:36.377Z,22.75
2022-09-14T22:52:04.755Z,22.65
2022-09-14T22:54:36.552Z,22.17
2022-09-14T22:57:07.895Z,22.80
2022-09-14T22:59:36.365Z,22.40
2022-09-14T23:02:04.817Z,21.67
2022-09-14T23:04:33.579Z,22.20
2022-09-14T23:07:02.926Z,22.92
2022-09-14T23:09:39.408Z,21.58
2022-09-14T23:12:08.171Z,21.52
2022-09-14T23:14:41.569Z,23.08
2022-09-14T23:17:10.060Z,21.67
2022-09-14T23:19:38.231Z,21.20
2022-09-14T23:22:06.650Z,21.33
2022-09-14T23:24:38.327Z,21.33
2022-09-14T23:27:08.307Z,20.58
2022-09-14T23:29:36.541Z,19.27
2022-09-14T23:32:05.484Z,19.88
2022-09-14T23:34:33.695Z,20.48
2022-09-14T23:37:02.208Z,20.25
2022-09-14T23:39:30.718Z,19.67
2022-09-14T23:42:01.348Z,18.42
2022-09-14T23:44:31.040Z,18.10
2022-09-14T23:47:00.996Z,19.85
2022-09-14T23:49:31.959Z,20.25
2022-09-14T23:52:00.063Z,19.08
2022-09-14T23:54:28.450Z,19.98
2022-09-14T23:56:56.506Z,18.98
2022-09-14T23:59:25.021Z,19.27
